Time;durP1;ratioP1;P1;durP2;ratioP2;P2;SDS_P1;SDS_P2;PMS_P1;PMS_P2;Temp;Humidity;BMP_temperature;BMP_pressure;BME280_temperature;BME280_humidity;BME280_pressure;Samples;Min_cycle;Max_cycle;Signal;HPM_P1;HPM_P2
2022/01/12 00:01:59;;;;;;;38.20;20.13;;;;;;;1.03;100.00;101633.72;4982661;28;20031;-85
2022/01/12 00:04:24;;;;;;;41.15;19.63;;;;;;;1.11;100.00;101631.59;4979003;28;20045;-85
2022/01/12 00:06:50;;;;;;;39.38;18.83;;;;;;;1.07;100.00;101632.66;4982445;28;20027;-87
2022/01/12 00:09:16;;;;;;;38.90;17.67;;;;;;;1.06;99.88;101649.25;4976913;28;20113;-87
2022/01/12 00:11:41;;;;;;;37.42;18.05;;;;;;;1.22;98.94;101644.97;4960302;28;20039;-83
2022/01/12 00:14:07;;;;;;;45.40;18.35;;;;;;;1.18;99.10;101640.81;4976476;28;20448;-87
2022/01/12 00:16:33;;;;;;;40.45;20.02;;;;;;;1.06;100.00;101654.47;4976770;28;20031;-85
2022/01/12 00:18:59;;;;;;;37.67;17.42;;;;;;;0.99;100.00;101658.28;4976308;28;20473;-85
2022/01/12 00:21:24;;;;;;;32.10;15.38;;;;;;;1.21;99.65;101658.09;4975364;28;20489;-85
2022/01/12 00:23:50;;;;;;;38.50;16.17;;;;;;;1.14;98.55;101662.75;4975489;28;20042;-87
2022/01/12 00:34:29;;;;;;;42.38;17.67;;;;;;;0.61;100.00;101691.38;4979990;28;20045;-86
2022/01/12 00:36:55;;;;;;;41.03;18.17;;;;;;;0.41;100.00;101681.84;4979247;28;20432;-85
2022/01/12 00:39:21;;;;;;;43.88;19.33;;;;;;;0.25;100.00;101686.06;4979982;28;20034;-87
2022/01/12 00:41:47;;;;;;;38.65;19.00;;;;;;;0.39;100.00;101688.06;4978592;28;20039;-85
2022/01/12 00:44:22;;;;;;;49.00;20.15;;;;;;;0.55;100.00;101693.41;4978458;28;20522;-86
2022/01/12 00:46:51;;;;;;;46.70;20.25;;;;;;;0.54;100.00;101682.13;4980033;28;20122;-87
2022/01/12 00:49:17;;;;;;;37.03;17.48;;;;;;;0.71;100.00;101684.81;4979219;28;20046;-87
2022/01/12 00:51:42;;;;;;;37.15;18.33;;;;;;;0.88;100.00;101697.09;4980001;28;20027;-89
2022/01/12 00:54:08;;;;;;;36.65;17.52;;;;;;;0.72;100.00;101694.34;4978829;28;20034;-86
2022/01/12 00:56:36;;;;;;;37.63;17.95;;;;;;;0.84;100.00;101670.28;4979724;28;20085;-86
2022/01/12 00:59:03;;;;;;;35.88;17.48;;;;;;;0.87;100.00;101690.16;4980048;28;20101;-86
2022/01/12 01:01:28;;;;;;;39.03;17.60;;;;;;;0.32;100.00;101707.50;4979732;28;20031;-87
2022/01/12 01:03:54;;;;;;;35.50;16.67;;;;;;;0.34;100.00;101670.00;4979437;28;20045;-88
2022/01/12 01:06:22;;;;;;;34.53;16.10;;;;;;;0.06;100.00;101697.38;4990868;28;20031;-86
2022/01/12 01:08:51;;;;;;;34.45;16.25;;;;;;;-0.11;100.00;101698.94;4984437;28;20113;-83
2022/01/12 01:11:23;;;;;;;32.40;16.45;;;;;;;-0.20;100.00;101677.66;4978469;28;20054;-86
2022/01/12 01:13:58;;;;;;;31.98;15.50;;;;;;;0.22;100.00;101691.41;4978720;28;20526;-86
2022/01/12 01:27:10;;;;;;;28.67;12.60;;;;;;;0.11;100.00;101706.66;4979401;28;20053;-87
2022/01/12 01:29:36;;;;;;;28.17;13.40;;;;;;;0.21;100.00;101699.28;4978919;28;20031;-85
2022/01/12 01:32:02;;;;;;;32.67;14.07;;;;;;;0.25;100.00;101680.84;4987813;28;20035;-85
2022/01/12 01:34:31;;;;;;;28.35;12.65;;;;;;;0.53;100.00;101707.38;4980164;28;20499;-85
2022/01/12 01:36:57;;;;;;;26.00;13.45;;;;;;;0.62;100.00;101705.28;4978636;28;20459;-86
2022/01/12 01:39:27;;;;;;;27.92;14.10;;;;;;;0.54;100.00;101700.41;4978931;28;20406;-85
2022/01/12 01:42:02;;;;;;;37.17;14.70;;;;;;;0.28;100.00;101696.34;4983427;28;20035;-85
2022/01/12 01:53:18;;;;;;;34.90;14.98;;;;;;;0.58;100.00;101699.34;4985215;28;20038;-85
2022/01/12 01:55:40;;;;;;;32.92;13.73;;;;;;;0.36;100.00;101699.47;4981981;28;20035;-84
2022/01/12 01:58:06;;;;;;;32.85;13.48;;;;;;;0.31;100.00;101700.59;4992440;28;20098;-84
2022/01/12 02:00:35;;;;;;;25.52;12.05;;;;;;;0.39;100.00;101708.91;4965559;28;20452;-84
2022/01/12 02:03:05;;;;;;;24.10;13.07;;;;;;;0.14;100.00;101695.25;4977274;28;20035;-85
2022/01/12 02:05:42;;;;;;;26.20;12.75;;;;;;;0.19;100.00;101696.78;4977544;28;20035;-85
2022/01/12 02:08:08;;;;;;;25.73;13.15;;;;;;;0.29;100.00;101698.06;4977585;28;20085;-86
2022/01/12 02:10:41;;;;;;;27.63;12.93;;;;;;;0.40;100.00;101706.22;4977034;28;20031;-83
2022/01/12 02:13:07;;;;;;;25.75;11.25;;;;;;;0.68;100.00;101705.00;4979140;28;20031;-87
2022/01/12 02:15:32;;;;;;;29.33;12.38;;;;;;;0.55;100.00;101704.72;4961613;28;20042;-87
2022/01/12 02:18:32;;;;;;;27.20;12.63;;;;;;;0.55;100.00;101711.69;4978524;28;20038;-86
2022/01/12 02:40:29;;;;;;;26.40;10.65;;;;;;;0.90;98.40;101722.19;4977912;28;20035;-84
2022/01/12 02:51:11;;;;;;;22.88;11.60;;;;;;;0.28;100.00;101734.63;4977211;28;20109;-86
2022/01/12 02:53:39;;;;;;;23.23;11.23;;;;;;;0.44;100.00;101733.88;4976589;28;20031;-85
2022/01/12 02:56:11;;;;;;;26.20;11.10;;;;;;;0.74;100.00;101738.63;4975489;28;20035;-86
2022/01/12 02:58:38;;;;;;;24.80;11.55;;;;;;;0.72;100.00;101735.25;4975632;28;20099;-85
2022/01/12 03:03:36;;;;;;;24.75;11.23;;;;;;;0.43;100.00;101742.59;4975397;28;20035;-84
2022/01/12 03:06:06;;;;;;;22.95;10.70;;;;;;;0.40;100.00;101737.53;4975205;28;20091;-84
2022/01/12 03:08:37;;;;;;;24.60;10.90;;;;;;;0.50;100.00;101744.03;4976641;28;20042;-86
2022/01/12 03:11:07;;;;;;;25.05;11.32;;;;;;;0.71;100.00;101747.44;4976059;28;20039;-85
2022/01/12 03:13:35;;;;;;;26.25;11.20;;;;;;;0.71;99.88;101746.59;4976048;28;20034;-86
2022/01/12 03:16:02;;;;;;;21.30;11.55;;;;;;;0.44;100.00;101728.66;4975817;28;20019;-86
2022/01/12 03:18:28;;;;;;;25.77;11.63;;;;;;;0.20;100.00;101745.38;4975889;28;20043;-85
2022/01/12 03:20:54;;;;;;;24.42;11.65;;;;;;;0.01;100.00;101752.28;4975582;28;20484;-86
2022/01/12 03:23:20;;;;;;;25.88;10.88;;;;;;;0.00;100.00;101748.81;4959011;28;20046;-84
2022/01/12 03:25:45;;;;;;;22.92;10.88;;;;;;;-0.11;100.00;101739.78;4976577;28;20034;-87
2022/01/12 03:28:12;;;;;;;32.08;11.88;;;;;;;-0.16;100.00;101747.78;4975616;28;20058;-85
2022/01/12 03:30:48;;;;;;;26.80;10.40;;;;;;;-0.24;100.00;101749.03;4975411;28;20098;-87
2022/01/12 03:33:50;;;;;;;22.17;10.88;;;;;;;-0.06;100.00;101754.28;4975525;28;20041;-86
2022/01/12 03:38:38;;;;;;;22.25;10.45;;;;;;;0.38;100.00;101756.75;4975959;28;20619;-85
2022/01/12 03:41:03;;;;;;;21.90;10.18;;;;;;;0.30;100.00;101767.50;4976375;28;20042;-84
2022/01/12 03:43:29;;;;;;;26.77;10.23;;;;;;;0.17;100.00;101761.13;4978574;28;20046;-86
2022/01/12 03:45:55;;;;;;;24.65;10.25;;;;;;;0.21;100.00;101765.31;4977390;28;20035;-85
2022/01/12 03:48:20;;;;;;;25.25;11.00;;;;;;;0.29;100.00;101767.59;4977150;28;20057;-85
2022/01/12 03:50:48;;;;;;;22.88;10.50;;;;;;;0.40;100.00;101783.59;4976580;28;20497;-85
2022/01/12 03:53:15;;;;;;;26.25;10.25;;;;;;;0.39;100.00;101776.72;4976232;28;20047;-84
2022/01/12 03:55:41;;;;;;;25.52;10.13;;;;;;;0.20;100.00;101789.69;4991867;28;20054;-86
2022/01/12 03:58:10;;;;;;;22.40;9.48;;;;;;;0.23;100.00;101794.75;4980687;28;20039;-85
2022/01/12 04:00:36;;;;;;;27.67;10.40;;;;;;;0.30;100.00;101793.59;4975501;28;20038;-85
2022/01/12 04:03:05;;;;;;;22.80;9.80;;;;;;;0.55;100.00;101797.75;4974525;28;20093;-87
2022/01/12 04:08:20;;;;;;;;;;;;;;;0.22;100.00;101795.69;4975460;28;20090;-85
2022/01/12 04:10:51;;;;;;;28.10;9.77;;;;;;;0.42;100.00;101790.47;4976351;28;19917;-84
2022/01/12 04:13:19;;;;;;;21.30;9.75;;;;;;;0.65;99.50;101796.44;4975504;28;20130;-85
2022/01/12 04:15:48;;;;;;;22.17;9.48;;;;;;;0.58;99.55;101795.00;4974711;28;20027;-86
2022/01/12 04:18:14;;;;;;;24.73;10.65;;;;;;;0.72;98.86;101797.84;4974808;28;20035;-86
2022/01/12 04:20:46;;;;;;;27.95;12.02;;;;;;;0.37;99.89;101800.25;4975356;28;20405;-86
2022/01/12 04:23:18;;;;;;;26.40;12.20;;;;;;;0.60;99.74;101801.03;4974917;28;20043;-86
2022/01/12 04:25:52;;;;;;;34.45;14.65;;;;;;;0.58;99.47;101797.63;4975415;28;20039;-85
2022/01/12 04:28:20;;;;;;;36.05;15.55;;;;;;;0.31;100.00;101804.88;4976049;28;20506;-85
2022/01/12 04:30:47;;;;;;;27.05;12.77;;;;;;;0.23;100.00;101796.53;4974904;28;20388;-87
2022/01/12 04:33:13;;;;;;;29.40;12.77;;;;;;;0.20;100.00;101797.50;4974869;28;20031;-83
2022/01/12 04:35:51;;;;;;;27.15;11.35;;;;;;;0.26;100.00;101802.47;4959407;28;20041;-85
2022/01/12 04:38:18;;;;;;;26.42;11.90;;;;;;;0.43;100.00;101815.63;4975757;28;20030;-85
2022/01/12 04:40:45;;;;;;;31.10;12.60;;;;;;;0.20;100.00;101802.72;4977194;28;20064;-85
2022/01/12 04:43:11;;;;;;;25.02;11.02;;;;;;;0.26;100.00;101801.63;4975177;28;20066;-84
2022/01/12 04:45:56;;;;;;;28.25;12.07;;;;;;;0.46;100.00;101809.44;4958707;28;20038;-85
2022/01/12 04:50:53;;;;;;;29.33;10.32;;;;;;;-0.09;100.00;101800.47;4976494;28;20061;-85
2022/01/12 04:53:20;;;;;;;29.63;11.65;;;;;;;0.21;100.00;101809.63;4975594;28;20061;-85
2022/01/12 04:55:47;;;;;;;26.52;11.35;;;;;;;0.10;100.00;101817.03;4977410;28;20035;-86
2022/01/12 04:58:14;;;;;;;27.77;10.63;;;;;;;0.31;100.00;101816.16;4992416;28;20039;-87
2022/01/12 05:00:42;;;;;;;25.58;10.25;;;;;;;0.30;100.00;101824.88;4992183;28;20053;-85
2022/01/12 05:08:52;;;;;;;27.48;10.93;;;;;;;0.12;100.00;101824.81;4975458;28;20031;-85
2022/01/12 05:14:03;;;;;;;26.25;11.65;;;;;;;-0.39;100.00;101825.16;4974926;28;20130;-86
2022/01/12 05:16:29;;;;;;;31.73;11.13;;;;;;;-0.18;100.00;101829.53;4977612;28;20066;-86
2022/01/12 05:18:56;;;;;;;26.73;11.98;;;;;;;-0.16;100.00;101819.88;4993494;28;20026;-86
2022/01/12 05:21:23;;;;;;;28.65;11.70;;;;;;;-0.15;100.00;101824.19;4996246;28;20106;-84
2022/01/12 05:23:49;;;;;;;30.42;12.40;;;;;;;-0.33;100.00;101827.53;4983078;28;20023;-84
2022/01/12 05:26:16;;;;;;;27.95;11.50;;;;;;;-0.55;100.00;101833.56;4978365;28;20133;-84
2022/01/12 05:28:43;;;;;;;28.65;12.30;;;;;;;-0.67;100.00;101839.28;4978408;28;20071;-87
2022/01/12 05:31:10;;;;;;;31.20;11.80;;;;;;;-0.67;100.00;101830.59;4978564;28;20066;-86
2022/01/12 05:33:37;;;;;;;35.25;13.13;;;;;;;-0.84;100.00;101838.19;4983659;28;20102;-84
2022/01/12 05:36:06;;;;;;;28.15;12.13;;;;;;;-0.65;100.00;101849.59;4979329;28;20019;-87
2022/01/12 05:38:32;;;;;;;27.27;12.23;;;;;;;-0.55;100.00;101851.81;4977876;28;20565;-85
2022/01/12 05:41:01;;;;;;;31.85;12.80;;;;;;;-0.44;100.00;101858.34;4962569;28;20402;-86
2022/01/12 05:43:29;;;;;;;32.05;12.88;;;;;;;-0.30;100.00;101840.44;4983536;28;20193;-85
2022/01/12 05:45:57;;;;;;;32.53;13.00;;;;;;;-0.08;100.00;101844.72;4979376;28;20034;-84
2022/01/12 05:51:09;;;;;;;26.08;11.85;;;;;;;0.05;100.00;101855.50;4979046;28;20075;-84
2022/01/12 05:53:35;;;;;;;30.20;12.25;;;;;;;-0.24;100.00;101867.09;4979096;28;20583;-85
2022/01/12 05:56:01;;;;;;;29.63;11.98;;;;;;;0.03;100.00;101867.75;4977781;28;20097;-85
2022/01/12 05:58:27;;;;;;;27.05;12.02;;;;;;;0.04;100.00;101873.78;4978556;28;20475;-86
2022/01/12 06:00:53;;;;;;;27.80;12.32;;;;;;;0.01;100.00;101853.91;4988079;28;20022;-89
2022/01/12 06:03:19;;;;;;;32.70;12.50;;;;;;;0.02;100.00;101845.19;4986628;28;20035;-87
2022/01/12 06:05:45;;;;;;;28.45;12.07;;;;;;;0.08;100.00;101855.38;4988284;28;20053;-85
2022/01/12 06:08:10;;;;;;;34.03;13.95;;;;;;;0.11;100.00;101876.09;4985781;28;20039;-87
2022/01/12 06:10:36;;;;;;;38.08;15.32;;;;;;;0.02;100.00;101881.69;4980289;28;20220;-86
2022/01/12 06:13:01;;;;;;;34.25;13.65;;;;;;;0.08;100.00;101878.81;4978533;28;20037;-83
2022/01/12 06:15:28;;;;;;;33.28;14.02;;;;;;;0.03;100.00;101880.78;4977204;28;20445;-84
2022/01/12 06:17:57;;;;;;;27.42;11.85;;;;;;;-0.37;100.00;101891.06;4978383;28;20039;-85
2022/01/12 06:20:23;;;;;;;30.88;12.32;;;;;;;-0.60;100.00;101890.16;4962845;28;20122;-86
2022/01/12 06:23:09;;;;;;;36.10;12.07;;;;;;;-0.83;100.00;101884.16;4976267;28;20034;-84
2022/01/12 06:25:36;;;;;;;33.75;12.20;;;;;;;-0.79;100.00;101898.72;4976481;28;20125;-85
2022/01/12 06:28:22;;;;;;;32.17;12.05;;;;;;;-0.97;100.00;101894.19;4975438;28;20126;-84
2022/01/12 06:33:33;;;;;;;30.90;11.95;;;;;;;-1.00;100.00;101908.19;4976040;28;20031;-85
2022/01/12 06:35:58;;;;;;;28.67;11.85;;;;;;;-0.92;100.00;101906.13;4976478;28;20081;-88
2022/01/12 06:38:25;;;;;;;30.63;12.75;;;;;;;-0.94;100.00;101907.94;4975117;28;20476;-84
2022/01/12 06:40:51;;;;;;;33.63;12.40;;;;;;;-0.87;100.00;101913.78;4991023;28;20049;-86
2022/01/12 06:43:17;;;;;;;35.53;13.43;;;;;;;-0.88;100.00;101912.94;4983904;28;20018;-86
2022/01/12 06:45:43;;;;;;;31.85;13.02;;;;;;;-0.99;100.00;101922.84;5008916;28;20035;-87
2022/01/12 06:48:08;;;;;;;39.55;13.18;;;;;;;-0.99;100.00;101933.25;4980339;28;20049;-86
2022/01/12 06:50:34;;;;;;;33.33;13.10;;;;;;;-0.92;100.00;101936.50;5003153;28;20434;-86
2022/01/12 06:52:59;;;;;;;35.95;14.00;;;;;;;-0.78;100.00;101940.31;4963712;28;20110;-84
2022/01/12 06:55:25;;;;;;;32.97;13.15;;;;;;;-0.95;100.00;101941.81;4969560;28;20039;-87
2022/01/12 06:57:50;;;;;;;40.10;14.38;;;;;;;-1.07;100.00;101949.16;4966635;28;20042;-86
2022/01/12 07:00:16;;;;;;;42.25;14.75;;;;;;;-1.08;100.00;101941.41;4963691;28;20045;-85
2022/01/12 07:02:42;;;;;;;54.10;16.92;;;;;;;-0.81;100.00;101945.63;4964677;28;21187;-83
2022/01/12 07:05:10;;;;;;;53.42;16.42;;;;;;;-0.65;100.00;101954.59;4955947;28;20059;-85
2022/01/12 07:07:36;;;;;;;37.78;13.38;;;;;;;-0.45;100.00;101961.66;4964195;28;20061;-85
2022/01/12 07:10:08;;;;;;;36.80;13.93;;;;;;;-0.20;100.00;101974.63;4955096;28;20101;-88
2022/01/12 07:12:36;;;;;;;42.47;13.38;;;;;;;-0.23;100.00;101985.16;4955482;28;20161;-85
2022/01/12 07:15:02;;;;;;;36.42;13.70;;;;;;;0.02;100.00;101988.53;4955398;28;20070;-85
2022/01/12 07:17:28;;;;;;;45.22;13.95;;;;;;;0.05;100.00;101996.22;4955533;28;20485;-84
2022/01/12 07:19:54;;;;;;;32.95;14.23;;;;;;;-0.01;100.00;101991.25;4939315;28;20046;-86
2022/01/12 07:22:19;;;;;;;39.45;13.57;;;;;;;0.24;100.00;101985.91;4955512;28;20085;-86
2022/01/12 07:24:45;;;;;;;35.13;12.65;;;;;;;0.59;99.63;101994.94;4955613;28;20038;-85
2022/01/12 07:27:10;;;;;;;27.45;11.50;;;;;;;0.71;98.64;101997.91;4956245;28;20043;-86
2022/01/12 07:29:36;;;;;;;27.33;10.88;;;;;;;1.09;94.90;102024.16;4961135;28;20488;-85
2022/01/12 07:32:02;;;;;;;31.15;11.85;;;;;;;1.15;97.86;102019.53;4958909;28;20403;-86
2022/01/12 07:34:28;;;;;;;25.38;10.48;;;;;;;1.62;92.48;102032.28;4958097;28;20035;-88
2022/01/12 07:36:53;;;;;;;23.05;9.57;;;;;;;1.49;91.46;102030.19;4956765;28;20031;-86
2022/01/12 07:39:19;;;;;;;26.80;12.02;;;;;;;1.75;91.57;102030.81;4955926;28;20478;-85
2022/01/12 07:41:44;;;;;;;35.00;11.02;;;;;;;2.03;90.88;102042.56;4956686;28;20039;-88
2022/01/12 07:44:10;;;;;;;29.13;11.90;;;;;;;2.02;88.77;102050.50;4956799;28;20031;-88
2022/01/12 07:46:36;;;;;;;29.38;11.32;;;;;;;1.87;88.92;102065.09;4957515;28;20137;-86
2022/01/12 07:49:01;;;;;;;38.50;12.50;;;;;;;1.76;90.17;102066.47;4956567;28;20035;-86
2022/01/12 07:51:27;;;;;;;28.75;13.57;;;;;;;2.32;88.77;102074.38;4956733;28;20074;-84
2022/01/12 07:53:53;;;;;;;34.33;15.35;;;;;;;2.86;87.05;102068.25;4958558;28;20042;-86
2022/01/12 07:56:18;;;;;;;32.70;14.20;;;;;;;2.64;86.89;102065.00;4958445;28;20474;-87
2022/01/12 07:58:44;;;;;;;37.42;15.95;;;;;;;2.86;87.13;102069.09;4956809;28;20390;-82
2022/01/12 08:01:09;;;;;;;33.90;14.90;;;;;;;2.86;87.80;102065.63;4967448;28;20026;-83
2022/01/12 08:03:35;;;;;;;34.13;14.88;;;;;;;3.19;87.76;102082.31;4987737;28;20392;-82
2022/01/12 08:06:01;;;;;;;37.10;16.55;;;;;;;3.11;87.08;102074.00;4963998;28;20488;-84
2022/01/12 08:08:26;;;;;;;41.22;17.95;;;;;;;2.42;90.44;102081.69;4990048;28;20026;-82
2022/01/12 08:10:52;;;;;;;31.55;17.17;;;;;;;1.92;94.38;102080.59;4995680;28;20015;-81
2022/01/12 08:13:17;;;;;;;41.28;17.25;;;;;;;1.81;95.93;102090.66;5002912;28;20035;-82
2022/01/12 08:15:43;;;;;;;37.85;17.25;;;;;;;1.73;97.79;102092.75;4969538;28;20041;-83
2022/01/12 08:18:08;;;;;;;37.67;17.17;;;;;;;1.74;97.48;102086.59;4975700;28;20070;-82
2022/01/12 08:20:34;;;;;;;37.85;16.40;;;;;;;1.60;98.08;102087.22;4970009;28;20039;-84
2022/01/12 08:22:59;;;;;;;36.90;16.50;;;;;;;1.51;98.65;102096.31;4973995;28;20499;-85
2022/01/12 08:25:25;;;;;;;30.98;16.35;;;;;;;1.64;98.88;102090.53;4973752;28;20031;-85
2022/01/12 08:27:51;;;;;;;39.97;16.05;;;;;;;1.79;97.35;102095.13;4974160;28;20054;-83
2022/01/12 08:30:21;;;;;;;32.75;14.88;;;;;;;1.77;97.23;102100.41;4963254;28;20456;-81
2022/01/12 08:32:51;;;;;;;31.40;14.63;;;;;;;1.67;97.24;102100.84;4957930;28;20139;-84
2022/01/12 08:35:17;;;;;;;30.67;13.93;;;;;;;1.59;97.80;102102.97;4974031;28;20049;-84
2022/01/12 08:37:43;;;;;;;35.47;13.93;;;;;;;1.69;96.99;102106.88;4963280;28;20048;-85
2022/01/12 08:40:11;;;;;;;30.30;14.38;;;;;;;1.86;98.95;102113.06;4969436;28;20027;-82
2022/01/12 08:42:37;;;;;;;28.23;14.15;;;;;;;1.91;96.24;102110.25;4957761;28;20058;-84
2022/01/12 08:45:06;;;;;;;30.65;14.13;;;;;;;2.04;95.10;102111.41;4963036;28;20022;-85
2022/01/12 08:47:32;;;;;;;29.02;14.20;;;;;;;2.01;95.70;102112.38;4964201;28;20046;-84
2022/01/12 08:49:58;;;;;;;31.63;15.00;;;;;;;1.97;96.55;102126.50;4967854;28;20129;-83
2022/01/12 08:52:30;;;;;;;29.35;15.00;;;;;;;2.11;96.72;102128.50;4964712;28;20034;-83
2022/01/12 08:54:56;;;;;;;42.57;15.63;;;;;;;2.26;95.07;102140.88;4966076;28;20042;-83
2022/01/12 08:57:22;;;;;;;34.88;15.60;;;;;;;2.27;95.43;102139.13;4971707;28;20042;-84
2022/01/12 08:59:48;;;;;;;35.88;15.55;;;;;;;2.33;95.56;102136.22;4965860;28;20037;-83
2022/01/12 09:02:14;;;;;;;43.47;15.90;;;;;;;2.38;96.40;102134.25;4968728;28;20114;-84
2022/01/12 09:04:43;;;;;;;37.92;17.40;;;;;;;2.37;96.10;102140.41;4968909;28;20139;-83
2022/01/12 09:07:08;;;;;;;41.00;17.73;;;;;;;2.32;97.38;102135.38;4952203;28;20114;-83
2022/01/12 09:09:35;;;;;;;35.78;18.17;;;;;;;2.33;99.19;102146.69;4976022;28;20094;-85
2022/01/12 09:12:02;;;;;;;43.25;19.02;;;;;;;2.31;100.00;102151.16;4967818;28;20094;-87
2022/01/12 09:14:28;;;;;;;38.70;19.20;;;;;;;2.29;100.00;102156.44;4970311;28;20031;-84
2022/01/12 09:16:55;;;;;;;43.10;20.35;;;;;;;2.23;100.00;102161.94;4965864;28;20034;-84
2022/01/12 09:19:25;;;;;;;38.33;19.98;;;;;;;2.66;100.00;102166.06;4965953;28;20521;-86
2022/01/12 09:21:50;;;;;;;39.20;20.15;;;;;;;2.69;100.00;102163.31;4968689;28;20493;-83
2022/01/12 09:24:17;;;;;;;41.88;20.25;;;;;;;2.92;100.00;102172.69;4965708;28;20071;-81
2022/01/12 09:26:43;;;;;;;42.58;21.35;;;;;;;2.88;100.00;102173.78;4969652;28;20040;-85
2022/01/12 09:29:08;;;;;;;48.28;23.42;;;;;;;2.77;100.00;102181.28;4973190;28;20031;-88
2022/01/12 09:31:35;;;;;;;43.90;23.10;;;;;;;2.87;100.00;102185.16;4980628;28;20023;-85
2022/01/12 09:34:02;;;;;;;41.65;21.88;;;;;;;2.98;100.00;102188.97;4975321;28;20115;-86
2022/01/12 09:36:27;;;;;;;43.42;23.42;;;;;;;2.94;100.00;102189.19;4969394;28;20038;-84
2022/01/12 09:38:54;;;;;;;51.38;24.23;;;;;;;2.97;100.00;102181.19;4967162;28;20043;-88
2022/01/12 09:41:21;;;;;;;51.78;25.80;;;;;;;3.02;100.00;102181.81;4954019;28;20069;-87
2022/01/12 09:43:53;;;;;;;46.65;24.90;;;;;;;3.16;100.00;102184.63;4970472;28;20459;-86
2022/01/12 09:46:22;;;;;;;42.13;24.02;;;;;;;3.23;100.00;102175.53;4975648;28;20043;-85
2022/01/12 09:48:47;;;;;;;50.95;25.98;;;;;;;3.27;100.00;102171.84;4972101;28;20067;-88
2022/01/12 09:51:16;;;;;;;46.10;24.13;;;;;;;3.26;100.00;102180.63;4958914;28;20027;-87
2022/01/12 09:53:41;;;;;;;50.00;25.30;;;;;;;3.26;100.00;102183.25;4972239;28;20033;-89
2022/01/12 09:56:20;;;;;;;45.05;25.88;;;;;;;3.34;100.00;102178.50;4969879;28;20050;-88
2022/01/12 09:58:51;;;;;;;49.55;25.33;;;;;;;3.30;100.00;102179.56;4970463;28;20035;-86
2022/01/12 10:01:32;;;;;;;49.83;25.73;;;;;;;3.49;100.00;102185.59;4970432;28;20034;-86
2022/01/12 10:04:17;;;;;;;51.42;25.63;;;;;;;3.58;100.00;102166.78;4970423;28;20123;-88
2022/01/12 10:06:47;;;;;;;42.85;24.58;;;;;;;3.47;100.00;102170.88;4955391;28;20449;-87
2022/01/12 10:09:14;;;;;;;49.47;25.20;;;;;;;3.40;100.00;102172.09;4967923;28;20046;-86
2022/01/12 10:11:56;;;;;;;49.22;26.45;;;;;;;3.40;100.00;102172.94;4970715;28;20110;-87
2022/01/12 10:14:24;;;;;;;56.45;25.25;;;;;;;3.41;100.00;102171.19;4968378;28;20031;-86
2022/01/12 10:17:07;;;;;;;51.95;24.90;;;;;;;3.53;100.00;102168.78;4972125;28;20259;-90
2022/01/12 10:23:22;;;;;;;49.63;24.48;;;;;;;3.49;100.00;102162.00;4993759;28;20061;-88
2022/01/12 10:29:14;;;;;;;51.13;26.05;;;;;;;3.55;100.00;102159.06;4999085;28;20094;-87
2022/01/12 10:31:55;;;;;;;50.25;25.50;;;;;;;3.62;100.00;102151.75;4983468;28;20031;-87
2022/01/12 10:34:40;;;;;;;48.28;23.88;;;;;;;3.86;99.15;102152.25;4982871;28;20105;-90
2022/01/12 10:37:18;;;;;;;45.45;22.45;;;;;;;3.78;97.96;102151.84;4982621;28;20095;-90
2022/01/12 10:49:39;;;;;;;40.47;23.00;;;;;;;3.82;99.78;102135.00;5005641;26;20332;-88
2022/01/12 11:10:23;;;;;;;50.33;23.20;;;;;;;4.21;98.62;102119.75;5340677;23;20062;-90
2022/01/12 11:13:01;;;;;;;47.13;23.15;;;;;;;4.45;97.11;102131.56;4979407;28;20282;-88
2022/01/12 11:16:14;;;;;;;38.45;21.33;;;;;;;4.75;96.47;102131.66;4979398;28;20065;-86
2022/01/12 11:18:52;;;;;;;47.80;21.58;;;;;;;4.55;94.59;102134.53;4931775;29;20052;-88
2022/01/12 11:25:02;;;;;;;42.33;21.13;;;;;;;5.14;94.56;102134.66;4905088;29;20088;-88
2022/01/12 11:28:27;;;;;;;42.17;20.70;;;;;;;5.12;93.49;102130.44;4922945;29;20048;-89
2022/01/12 11:31:44;;;;;;;;;;;;;;;;;;;;;
2022/01/12 11:35:00;;;;;;;39.58;20.60;;;;;;;5.33;93.39;102138.88;4928860;29;20046;-89
2022/01/12 11:37:29;;;;;;;41.83;21.10;;;;;;;5.49;94.43;102137.88;4925700;29;20446;-88
2022/01/12 11:40:14;;;;;;;42.28;21.67;;;;;;;5.24;93.01;102140.22;4941634;29;20079;-93
2022/01/12 11:42:40;;;;;;;50.15;20.83;;;;;;;5.07;93.57;102143.00;4926036;29;20044;-87
2022/01/12 11:45:09;;;;;;;38.95;20.85;;;;;;;5.15;94.49;102132.88;4943126;28;20047;-87
2022/01/12 11:48:07;;;;;;;45.40;21.97;;;;;;;5.24;95.06;102134.97;4939706;29;20042;-87
2022/01/12 11:50:38;;;;;;;52.50;22.88;;;;;;;5.43;95.98;102133.00;4956312;28;20134;-87
2022/01/12 11:53:06;;;;;;;47.40;23.05;;;;;;;5.19;98.06;102142.28;4938480;29;20110;-87
2022/01/12 11:55:40;;;;;;;47.78;23.17;;;;;;;5.19;98.27;102142.28;4940453;29;20035;-89
2022/01/12 11:58:16;;;;;;;45.47;22.25;;;;;;;5.29;99.22;102132.94;4961460;29;20066;-87
2022/01/12 12:00:45;;;;;;;49.67;23.40;;;;;;;5.32;99.43;102138.03;4943630;29;20106;-93
2022/01/12 12:03:24;;;;;;;56.00;23.17;;;;;;;5.35;97.81;102132.59;5013581;23;20051;-89
2022/01/12 12:05:54;;;;;;;45.53;23.25;;;;;;;5.49;97.77;102137.88;4989129;28;20077;-86
2022/01/12 12:08:24;;;;;;;47.53;21.13;;;;;;;5.45;99.47;102140.78;4995038;28;20031;-85
2022/01/12 12:10:53;;;;;;;40.88;21.27;;;;;;;5.42;97.78;102133.06;5004403;28;20049;-83
2022/01/12 12:13:21;;;;;;;44.72;22.33;;;;;;;5.56;96.40;102133.13;4999016;28;20038;-87
2022/01/12 12:15:46;;;;;;;39.90;21.75;;;;;;;5.50;95.89;102136.94;5007505;28;20045;-87
2022/01/12 12:18:13;;;;;;;42.45;21.70;;;;;;;5.67;95.17;102133.31;4991016;28;20054;-90
2022/01/12 12:20:41;;;;;;;46.67;21.35;;;;;;;5.49;95.02;102135.25;5004446;28;20034;-87
2022/01/12 12:23:07;;;;;;;47.83;21.13;;;;;;;5.59;95.29;102128.53;4999279;28;20108;-88
2022/01/12 12:25:35;;;;;;;45.63;22.05;;;;;;;5.53;94.00;102123.63;4982522;28;20058;-88
2022/01/12 12:28:04;;;;;;;40.83;20.10;;;;;;;5.55;92.52;102128.78;5006310;28;20468;-88
2022/01/12 12:30:31;;;;;;;34.22;18.17;;;;;;;5.57;90.56;102117.22;4985300;28;20050;-87
2022/01/12 12:33:04;;;;;;;35.03;17.73;;;;;;;5.66;90.97;102121.97;5001131;28;20070;-91
2022/01/12 12:35:33;;;;;;;39.92;18.25;;;;;;;5.96;93.74;102114.03;4997658;28;20579;-87
2022/01/12 12:38:05;;;;;;;40.90;19.42;;;;;;;5.96;90.65;102107.94;4982348;28;20022;-87
2022/01/12 12:40:35;;;;;;;38.33;18.42;;;;;;;6.05;93.62;102104.72;4999122;28;20341;-88
2022/01/12 12:43:19;;;;;;;38.72;18.92;;;;;;;6.17;92.33;102101.31;5003856;28;20038;-89
2022/01/12 12:45:51;;;;;;;33.80;17.80;;;;;;;6.20;90.02;102096.72;5001246;28;20106;-87
2022/01/12 12:48:22;;;;;;;;;;;;;;;6.07;86.80;102089.66;5001136;28;20049;-89
2022/01/12 12:51:00;;;;;;;41.83;18.02;;;;;;;5.93;86.33;102097.59;5002340;28;20279;-88
2022/01/12 12:53:31;;;;;;;36.47;19.05;;;;;;;6.15;86.53;102087.41;5003091;28;20042;-88
2022/01/12 12:55:56;;;;;;;41.22;18.45;;;;;;;6.23;86.70;102083.34;5000835;28;20034;-88
2022/01/12 12:58:28;;;;;;;40.72;19.15;;;;;;;6.12;85.85;102082.34;5003984;28;20105;-87
2022/01/12 13:01:08;;;;;;;44.27;19.63;;;;;;;6.14;87.33;102093.63;5003705;28;20441;-89
2022/01/12 13:03:39;;;;;;;38.30;19.42;;;;;;;6.14;87.63;102085.72;5000997;28;20069;-87
2022/01/12 13:06:06;;;;;;;36.25;19.35;;;;;;;6.08;87.37;102086.09;4996841;28;20073;-87
2022/01/12 13:08:35;;;;;;;44.53;18.42;;;;;;;6.26;87.13;102079.72;5020218;28;20038;-86
2022/01/12 13:11:06;;;;;;;34.40;16.90;;;;;;;6.43;86.75;102063.66;5010910;28;20038;-83
2022/01/12 13:13:36;;;;;;;29.33;16.77;;;;;;;6.46;84.27;102066.13;4995482;28;20137;-87
2022/01/12 13:16:02;;;;;;;34.05;17.15;;;;;;;6.41;81.47;102057.66;4985909;28;20030;-88
2022/01/12 13:18:28;;;;;;;32.92;17.23;;;;;;;6.50;81.45;102051.78;4985111;28;20039;-87
2022/01/12 13:21:07;;;;;;;33.65;17.35;;;;;;;6.40;83.38;102060.38;4985394;28;20442;-86
2022/01/12 13:23:51;;;;;;;35.85;19.30;;;;;;;6.37;85.53;102064.06;4986947;28;20049;-89